createdAt,value
2022-10-09T00:00:07.128Z,7.98
2022-10-09T00:02:16.062Z,7.99
2022-10-09T00:04:19.218Z,7.97
2022-10-09T00:06:23.726Z,7.91
2022-10-09T00:08:27.094Z,7.88
2022-10-09T00:10:30.086Z,7.80
2022-10-09T00:12:32.985Z,7.77
2022-10-09T00:14:36.292Z,7.73
2022-10-09T00:16:39.239Z,7.70
2022-10-09T00:18:44.121Z,7.72
2022-10-09T00:20:47.959Z,7.73
2022-10-09T00:22:51.067Z,7.72
2022-10-09T00:24:54.113Z,7.69
2022-10-09T00:26:57.144Z,7.70
2022-10-09T00:29:00.585Z,7.69
2022-10-09T00:31:12.894Z,7.71
2022-10-09T00:33:17.031Z,7.69
2022-10-09T00:35:21.526Z,7.72
2022-10-09T00:37:25.892Z,7.72
2022-10-09T00:39:28.858Z,7.70
2022-10-09T00:41:33.914Z,7.71
2022-10-09T00:43:46.072Z,7.72
2022-10-09T00:45:51.598Z,7.74
2022-10-09T00:47:57.308Z,7.74
2022-10-09T00:50:04.149Z,7.75
2022-10-09T00:52:08.982Z,7.77
2022-10-09T00:54:14.783Z,7.78
2022-10-09T00:56:17.734Z,7.78
2022-10-09T00:58:20.863Z,7.75
2022-10-09T01:00:24.465Z,7.76
2022-10-09T01:02:27.421Z,7.73
2022-10-09T01:04:31.289Z,7.74
2022-10-09T01:06:45.965Z,7.76
2022-10-09T01:08:54.116Z,7.75
2022-10-09T01:11:01.138Z,7.76
2022-10-09T01:13:08.586Z,7.69
2022-10-09T01:15:18.616Z,7.71
2022-10-09T01:17:29.109Z,7.68
2022-10-09T01:19:45.931Z,7.69
2022-10-09T01:21:54.430Z,7.66
2022-10-09T01:24:10.494Z,7.69
2022-10-09T01:29:51.919Z,7.65
2022-10-09T01:31:56.617Z,7.61
2022-10-09T01:34:01.001Z,7.59
2022-10-09T01:36:07.117Z,7.58
2022-10-09T01:38:10.279Z,7.58
2022-10-09T01:40:15.371Z,7.56
2022-10-09T01:42:20.167Z,7.52
2022-10-09T01:44:25.318Z,7.49
2022-10-09T01:46:31.405Z,7.49
2022-10-09T01:48:34.559Z,7.41
2022-10-09T01:50:41.912Z,7.46
2022-10-09T01:52:47.919Z,7.46
2022-10-09T01:54:59.871Z,7.36
2022-10-09T01:57:03.711Z,7.35
2022-10-09T01:59:15.620Z,7.38
2022-10-09T02:01:21.408Z,7.35
2022-10-09T02:03:27.144Z,7.39
2022-10-09T02:05:31.582Z,7.35
2022-10-09T02:07:34.965Z,7.31
2022-10-09T02:09:38.794Z,7.31
2022-10-09T02:11:43.278Z,7.26
2022-10-09T02:13:47.217Z,7.23
2022-10-09T02:15:53.391Z,7.19
2022-10-09T02:18:02.709Z,7.19
2022-10-09T02:20:11.275Z,7.17
2022-10-09T02:22:17.468Z,7.11
2022-10-09T02:24:21.835Z,7.06
2022-10-09T02:26:25.061Z,7.11
2022-10-09T02:28:27.994Z,7.09
2022-10-09T02:30:38.725Z,7.09
2022-10-09T02:32:41.724Z,7.08
2022-10-09T02:34:44.771Z,7.07
2022-10-09T02:36:49.581Z,7.08
2022-10-09T02:38:53.453Z,7.06
2022-10-09T02:40:59.271Z,7.03
2022-10-09T02:43:02.133Z,7.03
2022-10-09T02:45:05.944Z,7.00
2022-10-09T02:47:09.397Z,7.06
2022-10-09T02:49:12.572Z,7.03
2022-10-09T02:51:15.482Z,7.08
2022-10-09T02:53:19.817Z,7.09
2022-10-09T02:55:22.702Z,7.10
2022-10-09T02:57:25.579Z,7.05
2022-10-09T02:59:28.430Z,7.06
2022-10-09T03:01:31.397Z,7.03
2022-10-09T03:03:34.755Z,7.06
2022-10-09T03:05:37.671Z,7.04
2022-10-09T03:07:40.709Z,7.05
2022-10-09T03:09:45.489Z,6.99
2022-10-09T03:11:48.519Z,6.99
2022-10-09T03:13:51.765Z,6.91
2022-10-09T03:15:54.687Z,6.92
2022-10-09T03:17:57.636Z,6.86
2022-10-09T03:20:00.530Z,6.80
2022-10-09T03:22:03.436Z,6.80
2022-10-09T03:24:06.411Z,6.82
2022-10-09T03:26:12.477Z,6.82
2022-10-09T03:28:15.389Z,6.84
2022-10-09T03:30:18.562Z,6.84
2022-10-09T03:32:21.488Z,6.81
2022-10-09T03:34:24.464Z,6.80
2022-10-09T03:36:27.494Z,6.79
2022-10-09T03:38:30.355Z,6.80
2022-10-09T03:40:33.694Z,6.78
2022-10-09T03:42:38.271Z,6.73
2022-10-09T03:44:42.225Z,6.72
2022-10-09T03:46:46.873Z,6.71
2022-10-09T03:48:50.261Z,6.69
2022-10-09T03:50:53.896Z,6.68
2022-10-09T03:52:57.420Z,6.67
2022-10-09T03:55:00.556Z,6.71
2022-10-09T04:01:24.615Z,6.70
2022-10-09T04:03:28.000Z,6.67
2022-10-09T04:05:34.229Z,6.65
2022-10-09T04:07:37.172Z,6.64
2022-10-09T04:09:40.167Z,6.57
2022-10-09T04:11:43.143Z,6.51
2022-10-09T04:13:46.016Z,6.51
2022-10-09T04:15:51.086Z,6.49
2022-10-09T04:17:55.541Z,6.48
2022-10-09T04:19:58.818Z,6.42
2022-10-09T04:22:01.757Z,6.42
2022-10-09T04:24:08.292Z,6.41
2022-10-09T04:26:12.429Z,6.42
2022-10-09T04:28:15.467Z,6.44
2022-10-09T04:30:18.408Z,6.48
2022-10-09T04:32:21.281Z,6.48
2022-10-09T04:34:27.104Z,6.46
2022-10-09T04:36:30.033Z,6.45
2022-10-09T04:38:33.382Z,6.40
2022-10-09T04:40:36.242Z,6.42
2022-10-09T04:42:39.177Z,6.39
2022-10-09T04:44:42.145Z,6.35
2022-10-09T04:46:44.992Z,6.34
2022-10-09T04:48:48.944Z,6.30
2022-10-09T04:50:53.302Z,6.26
2022-10-09T04:52:56.166Z,6.25
2022-10-09T04:54:59.032Z,6.18
2022-10-09T04:57:01.861Z,6.14
2022-10-09T04:59:05.130Z,6.13
2022-10-09T05:01:08.968Z,6.07
2022-10-09T05:03:12.511Z,6.09
2022-10-09T05:05:15.750Z,6.03
2022-10-09T05:07:20.283Z,6.04
2022-10-09T05:09:23.441Z,6.05
2022-10-09T05:11:26.901Z,6.07
2022-10-09T05:13:30.893Z,6.12
2022-10-09T05:15:37.686Z,6.07
2022-10-09T05:17:40.682Z,6.06
2022-10-09T05:19:43.734Z,6.07
2022-10-09T05:21:46.681Z,6.12
2022-10-09T05:23:51.047Z,6.14
2022-10-09T05:25:56.785Z,6.15
2022-10-09T05:28:00.341Z,6.14
2022-10-09T05:30:03.232Z,6.09
2022-10-09T05:32:06.133Z,6.07
2022-10-09T05:34:09.066Z,6.04
2022-10-09T05:36:12.027Z,6.06
2022-10-09T05:38:15.098Z,6.06
2022-10-09T05:40:19.708Z,6.07
2022-10-09T05:42:22.610Z,6.06
2022-10-09T05:44:25.641Z,6.12
2022-10-09T05:46:29.759Z,6.18
2022-10-09T05:48:32.701Z,6.20
2022-10-09T05:50:35.794Z,6.23
2022-10-09T05:52:40.009Z,6.24
2022-10-09T05:54:42.893Z,6.25
2022-10-09T05:56:47.506Z,6.27
2022-10-09T05:58:52.434Z,6.28
2022-10-09T06:00:55.371Z,6.30
2022-10-09T06:02:58.277Z,6.30
2022-10-09T06:05:01.164Z,6.32
2022-10-09T06:07:04.021Z,6.29
2022-10-09T06:09:07.720Z,6.30
2022-10-09T06:11:12.260Z,6.32
2022-10-09T06:13:16.594Z,6.36
2022-10-09T06:15:19.518Z,6.40
2022-10-09T06:17:22.428Z,6.57
2022-10-09T06:19:25.349Z,6.77
2022-10-09T06:21:29.220Z,6.96
2022-10-09T06:23:32.640Z,7.13
2022-10-09T06:25:35.528Z,7.26
2022-10-09T06:27:38.380Z,7.46
2022-10-09T06:29:42.589Z,7.64
2022-10-09T06:31:45.494Z,7.65
2022-10-09T06:33:49.370Z,7.76
2022-10-09T06:35:52.362Z,7.95
2022-10-09T06:37:55.597Z,8.07
2022-10-09T06:39:58.498Z,8.24
2022-10-09T06:42:01.687Z,8.35
2022-10-09T06:44:17.391Z,8.51
2022-10-09T06:46:23.496Z,8.69
2022-10-09T06:48:26.431Z,8.64
2022-10-09T06:50:29.346Z,8.88
2022-10-09T06:52:32.238Z,9.03
2022-10-09T06:54:35.313Z,9.10
2022-10-09T06:56:38.605Z,9.19
2022-10-09T06:58:41.962Z,9.33
2022-10-09T07:00:44.970Z,9.34
2022-10-09T07:02:49.966Z,9.47
2022-10-09T07:04:53.087Z,9.47
2022-10-09T07:06:55.980Z,9.57
2022-10-09T07:09:00.521Z,9.75
2022-10-09T07:11:09.730Z,9.82
2022-10-09T07:13:12.911Z,9.92
2022-10-09T07:15:15.821Z,10.20
2022-10-09T07:17:18.752Z,10.09
2022-10-09T07:19:23.084Z,10.05
2022-10-09T07:21:26.019Z,10.16
2022-10-09T07:23:29.398Z,10.29
2022-10-09T07:25:32.277Z,10.99
2022-10-09T07:27:35.956Z,11.29
2022-10-09T07:29:38.883Z,11.42
2022-10-09T07:31:41.933Z,11.61
2022-10-09T07:33:44.979Z,11.82
2022-10-09T07:35:55.530Z,12.02
2022-10-09T07:37:58.403Z,12.16
2022-10-09T07:40:01.735Z,12.53
2022-10-09T07:42:05.028Z,12.61
2022-10-09T07:44:08.367Z,12.67
2022-10-09T07:46:13.790Z,12.39
2022-10-09T07:48:16.792Z,12.97
2022-10-09T07:50:19.817Z,13.52
2022-10-09T07:52:24.125Z,13.96
2022-10-09T07:54:27.041Z,14.32
2022-10-09T07:56:31.770Z,14.12
2022-10-09T07:58:35.249Z,13.93
2022-10-09T08:00:38.197Z,14.78
2022-10-09T08:02:41.360Z,14.46
2022-10-09T08:04:44.281Z,15.01
2022-10-09T08:06:47.149Z,15.29
2022-10-09T08:08:52.420Z,15.80
2022-10-09T08:10:55.299Z,15.97
2022-10-09T08:12:58.208Z,16.08
2022-10-09T08:15:01.682Z,16.45
2022-10-09T08:17:04.560Z,16.51
2022-10-09T08:19:07.484Z,16.30
2022-10-09T08:21:12.417Z,16.43
2022-10-09T08:23:15.323Z,15.34
2022-10-09T08:25:19.939Z,15.81
2022-10-09T08:27:22.919Z,16.08
2022-10-09T08:29:25.975Z,16.00
2022-10-09T08:31:29.551Z,16.12
2022-10-09T08:33:32.543Z,16.00
2022-10-09T08:35:35.809Z,15.62
2022-10-09T08:37:38.813Z,15.90
2022-10-09T08:39:41.738Z,16.02
2022-10-09T08:41:47.988Z,15.89
2022-10-09T08:43:53.766Z,15.94
2022-10-09T08:45:57.247Z,15.72
2022-10-09T08:48:03.971Z,16.11
2022-10-09T08:50:13.041Z,16.02
2022-10-09T08:52:26.058Z,16.22
2022-10-09T08:54:34.271Z,16.07
2022-10-09T08:56:37.328Z,15.91
2022-10-09T08:58:42.891Z,16.23
2022-10-09T09:00:48.906Z,15.78
2022-10-09T09:03:10.323Z,16.24
2022-10-09T09:05:33.892Z,16.17
2022-10-09T09:07:42.495Z,15.98
2022-10-09T09:09:52.454Z,16.19
2022-10-09T09:11:58.558Z,16.40
2022-10-09T09:14:13.723Z,16.07
2022-10-09T09:16:23.099Z,15.93
2022-10-09T09:18:39.605Z,15.92
2022-10-09T09:20:52.845Z,15.99
2022-10-09T09:22:57.048Z,16.22
2022-10-09T09:25:08.966Z,16.03
2022-10-09T09:27:14.147Z,16.01
2022-10-09T09:29:24.726Z,15.99
2022-10-09T09:31:31.423Z,15.68
2022-10-09T09:33:43.651Z,16.12
2022-10-09T09:35:52.937Z,16.18
2022-10-09T09:37:55.848Z,16.31
2022-10-09T09:42:22.446Z,16.04
2022-10-09T09:44:27.487Z,16.33
2022-10-09T09:46:31.865Z,16.09
2022-10-09T09:48:37.488Z,16.27
2022-10-09T09:50:50.674Z,16.34
2022-10-09T09:53:02.925Z,16.14
2022-10-09T09:55:06.931Z,16.35
2022-10-09T09:57:17.024Z,16.45
2022-10-09T09:59:33.962Z,16.50
2022-10-09T10:01:36.947Z,16.88
2022-10-09T10:03:49.793Z,16.99
2022-10-09T10:05:53.585Z,16.98
2022-10-09T10:07:57.707Z,17.07
2022-10-09T10:10:08.315Z,17.08
2022-10-09T10:12:17.765Z,17.41
2022-10-09T10:14:20.678Z,17.56
2022-10-09T10:16:26.542Z,17.61
2022-10-09T10:18:32.271Z,17.40
2022-10-09T10:20:43.854Z,17.62
2022-10-09T10:22:52.255Z,17.37
2022-10-09T10:24:58.183Z,17.42
2022-10-09T10:27:04.777Z,17.52
2022-10-09T10:29:12.421Z,17.44
2022-10-09T10:31:24.044Z,17.41
2022-10-09T10:33:30.997Z,17.60
2022-10-09T10:44:41.732Z,17.39
2022-10-09T10:46:49.555Z,17.53
2022-10-09T10:48:52.701Z,17.51
2022-10-09T10:51:05.478Z,17.63
2022-10-09T10:53:15.750Z,17.51
2022-10-09T10:55:28.626Z,17.47
2022-10-09T10:57:40.969Z,17.69
2022-10-09T10:59:54.206Z,17.94
2022-10-09T11:02:13.667Z,17.66
2022-10-09T11:04:33.312Z,17.98
2022-10-09T11:06:41.075Z,17.73
2022-10-09T11:08:56.568Z,17.89
2022-10-09T11:11:06.760Z,17.76
2022-10-09T11:13:15.433Z,17.86
2022-10-09T11:15:27.340Z,18.05
2022-10-09T11:17:39.728Z,18.59
2022-10-09T11:20:15.035Z,18.58
2022-10-09T11:22:27.269Z,18.94
2022-10-09T11:24:57.434Z,19.04
2022-10-09T11:27:10.239Z,19.34
2022-10-09T11:29:18.600Z,19.28
2022-10-09T11:31:28.559Z,19.21
2022-10-09T11:33:35.681Z,19.37
2022-10-09T11:35:43.781Z,19.29
2022-10-09T11:37:52.429Z,19.60
2022-10-09T11:40:24.383Z,19.44
2022-10-09T11:42:27.698Z,19.47
2022-10-09T11:44:38.857Z,19.30
2022-10-09T11:46:47.032Z,19.34
2022-10-09T11:48:53.915Z,19.43
2022-10-09T11:51:01.795Z,19.32
2022-10-09T11:53:07.040Z,18.97
2022-10-09T11:55:18.693Z,18.90
2022-10-09T11:57:29.061Z,18.97
2022-10-09T11:59:35.243Z,19.24
2022-10-09T12:01:40.193Z,19.33
2022-10-09T12:03:44.977Z,19.34
2022-10-09T12:05:48.770Z,19.27
2022-10-09T12:07:51.767Z,19.36
2022-10-09T12:09:59.321Z,19.61
2022-10-09T12:12:06.201Z,19.63
2022-10-09T12:14:09.647Z,19.69
2022-10-09T12:16:31.281Z,19.89
2022-10-09T12:18:36.596Z,19.79
2022-10-09T12:20:41.997Z,19.52
2022-10-09T12:23:07.259Z,19.39
2022-10-09T12:25:17.595Z,19.55
2022-10-09T12:27:25.805Z,19.57
2022-10-09T12:29:32.507Z,20.01
2022-10-09T12:31:38.179Z,19.82
2022-10-09T12:33:44.672Z,20.07
2022-10-09T12:35:59.565Z,20.38
2022-10-09T12:38:02.594Z,20.23
2022-10-09T12:40:10.753Z,19.96
2022-10-09T12:42:20.001Z,20.37
2022-10-09T12:44:28.099Z,20.86
2022-10-09T12:46:33.172Z,20.81
2022-10-09T12:48:38.973Z,20.62
2022-10-09T12:50:42.524Z,20.40
2022-10-09T12:52:52.038Z,20.21
2022-10-09T12:54:55.542Z,20.84
2022-10-09T12:56:59.406Z,21.05
2022-10-09T12:59:03.620Z,20.93
2022-10-09T13:01:14.294Z,20.69
2022-10-09T13:03:24.280Z,20.92
2022-10-09T13:05:38.113Z,20.47
2022-10-09T13:07:43.273Z,20.05
2022-10-09T13:09:51.181Z,19.97
2022-10-09T13:11:59.727Z,20.79
2022-10-09T13:14:03.303Z,20.49
2022-10-09T13:16:10.728Z,20.61
2022-10-09T13:18:15.864Z,20.80
2022-10-09T13:20:26.007Z,21.18
2022-10-09T13:22:33.597Z,21.32
2022-10-09T13:24:38.657Z,21.25
2022-10-09T13:26:45.148Z,21.32
2022-10-09T13:28:48.335Z,21.28
2022-10-09T13:30:51.469Z,20.79
2022-10-09T13:32:55.420Z,21.07
2022-10-09T13:34:58.557Z,21.29
2022-10-09T13:37:01.408Z,21.79
2022-10-09T13:39:04.916Z,21.37
2022-10-09T13:41:08.396Z,21.00
2022-10-09T13:43:18.911Z,21.13
2022-10-09T13:45:21.914Z,21.21
2022-10-09T13:47:25.012Z,21.59
2022-10-09T13:49:29.220Z,21.93
2022-10-09T13:51:32.706Z,21.38
2022-10-09T13:53:35.675Z,21.04
2022-10-09T13:55:40.980Z,21.14
2022-10-09T13:57:44.010Z,20.67
2022-10-09T13:59:48.253Z,20.82
2022-10-09T14:01:54.050Z,20.57
2022-10-09T14:03:57.629Z,20.52
2022-10-09T14:06:00.803Z,20.53
2022-10-09T14:08:05.097Z,20.23
2022-10-09T14:10:08.696Z,20.33
2022-10-09T14:12:12.110Z,20.20
2022-10-09T14:14:15.093Z,20.62
2022-10-09T14:16:19.296Z,20.69
2022-10-09T14:18:22.646Z,20.40
2022-10-09T14:20:27.014Z,20.12
2022-10-09T14:22:29.877Z,19.81
2022-10-09T14:24:34.945Z,20.36
2022-10-09T14:26:39.059Z,19.97
2022-10-09T14:28:42.642Z,20.03
2022-10-09T14:30:45.616Z,20.35
2022-10-09T14:32:50.590Z,20.33
2022-10-09T14:34:54.401Z,20.31
2022-10-09T14:36:57.340Z,20.39
2022-10-09T14:39:00.716Z,20.16
2022-10-09T14:41:06.624Z,20.45
2022-10-09T14:43:09.580Z,20.37
2022-10-09T14:45:12.587Z,20.24
2022-10-09T14:47:15.600Z,20.09
2022-10-09T14:49:22.087Z,20.15
2022-10-09T14:51:26.759Z,20.15
2022-10-09T14:53:29.721Z,19.89
2022-10-09T14:55:35.428Z,20.00
2022-10-09T14:57:39.651Z,19.89
2022-10-09T14:59:42.815Z,19.61
2022-10-09T15:01:45.726Z,19.65
2022-10-09T15:03:48.892Z,19.59
2022-10-09T15:05:53.185Z,19.37
2022-10-09T15:07:58.496Z,19.36
2022-10-09T15:10:01.535Z,19.07
2022-10-09T15:12:04.609Z,19.00
2022-10-09T15:14:07.912Z,19.33
2022-10-09T15:16:13.564Z,19.28
2022-10-09T15:18:18.068Z,19.36
2022-10-09T15:20:21.105Z,19.13
2022-10-09T15:22:25.455Z,18.94
2022-10-09T15:24:28.381Z,19.04
2022-10-09T15:26:34.382Z,19.17
2022-10-09T15:28:37.679Z,19.24
2022-10-09T15:30:45.359Z,19.02
2022-10-09T15:32:48.363Z,18.97
2022-10-09T15:34:53.584Z,18.96
2022-10-09T15:36:56.443Z,18.85
2022-10-09T15:39:08.746Z,18.66
2022-10-09T15:41:22.242Z,18.68
2022-10-09T15:43:26.643Z,18.65
2022-10-09T15:45:30.339Z,18.54
2022-10-09T15:47:50.513Z,18.40
2022-10-09T15:49:54.864Z,18.29
2022-10-09T15:51:57.745Z,18.32
2022-10-09T15:54:01.867Z,18.22
2022-10-09T15:56:10.161Z,18.15
2022-10-09T15:58:13.625Z,18.06
2022-10-09T16:00:17.116Z,17.94
2022-10-09T16:02:20.322Z,17.91
2022-10-09T16:04:23.255Z,17.86
2022-10-09T16:06:26.100Z,17.77
2022-10-09T16:08:29.398Z,17.76
2022-10-09T16:10:32.495Z,17.64
2022-10-09T16:12:36.765Z,17.63
2022-10-09T16:14:40.997Z,17.54
2022-10-09T16:16:43.989Z,17.49
2022-10-09T16:18:47.204Z,17.39
2022-10-09T16:20:50.799Z,17.34
2022-10-09T16:22:53.698Z,17.23
2022-10-09T16:24:56.707Z,17.19
2022-10-09T16:26:59.649Z,17.13
2022-10-09T16:29:04.100Z,17.05
2022-10-09T16:31:10.166Z,16.98
2022-10-09T16:33:13.201Z,16.87
2022-10-09T16:35:16.326Z,16.81
2022-10-09T16:37:19.238Z,16.64
2022-10-09T16:39:23.646Z,16.51
2022-10-09T16:41:27.173Z,16.39
2022-10-09T16:43:30.273Z,16.27
2022-10-09T16:45:34.501Z,16.15
2022-10-09T16:47:37.408Z,16.06
2022-10-09T16:49:40.311Z,15.95
2022-10-09T16:51:43.666Z,15.82
2022-10-09T16:53:50.604Z,15.69
2022-10-09T16:55:53.537Z,15.58
2022-10-09T16:57:57.753Z,15.41
2022-10-09T17:00:01.799Z,15.27
2022-10-09T17:02:06.204Z,15.12
2022-10-09T17:04:11.418Z,15.05
2022-10-09T17:06:19.676Z,14.95
2022-10-09T17:08:22.716Z,14.84
2022-10-09T17:10:25.575Z,14.77
2022-10-09T17:12:29.211Z,14.65
2022-10-09T17:14:32.418Z,14.54
2022-10-09T17:16:38.036Z,14.42
2022-10-09T17:18:42.507Z,14.33
2022-10-09T17:20:45.670Z,14.20
2022-10-09T17:22:48.997Z,14.06
2022-10-09T17:24:52.152Z,13.94
2022-10-09T17:26:56.034Z,13.86
2022-10-09T17:29:00.441Z,13.80
2022-10-09T17:31:11.639Z,13.69
2022-10-09T17:33:19.545Z,13.55
2022-10-09T17:35:25.186Z,13.47
2022-10-09T17:37:28.932Z,13.38
2022-10-09T17:39:34.371Z,13.29
2022-10-09T17:41:38.047Z,13.19
2022-10-09T17:43:41.537Z,13.12
2022-10-09T17:45:47.492Z,13.03
2022-10-09T17:47:50.765Z,12.98
2022-10-09T17:49:54.638Z,12.86
2022-10-09T17:51:58.902Z,12.82
2022-10-09T17:54:05.983Z,12.76
2022-10-09T17:56:12.909Z,12.67
2022-10-09T17:58:15.892Z,12.61
2022-10-09T18:00:21.776Z,12.57
2022-10-09T18:02:24.966Z,12.56
2022-10-09T18:04:28.887Z,12.56
2022-10-09T18:06:34.471Z,12.45
2022-10-09T18:08:39.658Z,12.40
2022-10-09T18:10:42.755Z,12.44
2022-10-09T18:12:45.728Z,12.45
2022-10-09T18:14:51.382Z,12.46
2022-10-09T18:16:54.828Z,12.45
2022-10-09T18:19:02.262Z,12.44
2022-10-09T18:21:11.130Z,12.40
2022-10-09T18:23:17.421Z,12.36
2022-10-09T18:25:23.823Z,12.28
2022-10-09T18:27:28.950Z,12.27
2022-10-09T18:29:31.960Z,12.28
2022-10-09T18:31:36.147Z,12.28
2022-10-09T18:33:39.731Z,12.24
2022-10-09T18:35:42.835Z,12.19
2022-10-09T18:37:47.286Z,12.19
2022-10-09T18:39:50.470Z,12.15
2022-10-09T18:41:55.723Z,12.11
2022-10-09T18:44:01.031Z,12.06
2022-10-09T18:46:06.215Z,12.04
2022-10-09T18:48:10.730Z,12.05
2022-10-09T18:50:16.346Z,11.95
2022-10-09T18:52:19.607Z,11.89
2022-10-09T18:54:24.733Z,11.88
2022-10-09T18:56:30.132Z,11.82
2022-10-09T18:58:35.155Z,11.74
2022-10-09T19:00:38.811Z,11.75
2022-10-09T19:02:42.475Z,11.73
2022-10-09T19:04:45.405Z,11.68
2022-10-09T19:06:48.709Z,11.57
2022-10-09T19:08:52.659Z,11.49
2022-10-09T19:10:55.989Z,11.38
2022-10-09T19:13:00.961Z,11.25
2022-10-09T19:15:11.062Z,11.21
2022-10-09T19:17:15.596Z,11.19
2022-10-09T19:19:18.548Z,11.13
2022-10-09T19:21:21.636Z,11.11
2022-10-09T19:23:25.045Z,11.07
2022-10-09T19:25:28.010Z,11.04
2022-10-09T19:27:34.717Z,11.02
2022-10-09T19:29:38.467Z,10.95
2022-10-09T19:31:43.330Z,10.89
2022-10-09T19:33:46.469Z,10.83
2022-10-09T19:35:50.601Z,10.80
2022-10-09T19:37:53.489Z,10.75
2022-10-09T19:39:56.727Z,10.66
2022-10-09T19:41:59.864Z,10.55
2022-10-09T19:44:02.756Z,10.58
2022-10-09T19:46:10.323Z,10.53
2022-10-09T19:48:14.711Z,10.51
2022-10-09T19:50:17.886Z,10.43
2022-10-09T19:52:21.081Z,10.36
2022-10-09T19:54:23.958Z,10.33
2022-10-09T19:56:29.534Z,10.27
2022-10-09T19:58:32.637Z,10.25
2022-10-09T20:00:35.810Z,10.15
2022-10-09T20:02:38.847Z,10.10
2022-10-09T20:04:44.170Z,10.02
2022-10-09T20:06:48.452Z,10.03
2022-10-09T20:08:52.980Z,9.96
2022-10-09T20:10:59.247Z,9.93
2022-10-09T20:13:04.555Z,9.92
2022-10-09T20:15:11.222Z,9.86
2022-10-09T20:17:14.198Z,9.78
2022-10-09T20:19:17.064Z,9.81
2022-10-09T20:21:21.283Z,9.80
2022-10-09T20:23:24.266Z,9.76
2022-10-09T20:25:27.647Z,9.71
2022-10-09T20:27:31.094Z,9.68
2022-10-09T20:29:34.332Z,9.69
2022-10-09T20:31:37.253Z,9.62
2022-10-09T20:33:40.203Z,9.60
2022-10-09T20:35:43.949Z,9.54
2022-10-09T20:37:48.330Z,9.50
2022-10-09T20:39:51.987Z,9.45
2022-10-09T20:41:54.864Z,9.35
2022-10-09T20:43:59.908Z,9.33
2022-10-09T20:46:07.592Z,9.27
2022-10-09T20:48:12.268Z,9.23
2022-10-09T20:50:16.003Z,9.21
2022-10-09T20:52:18.927Z,9.29
2022-10-09T20:54:23.510Z,9.28
2022-10-09T20:56:28.467Z,9.31
2022-10-09T20:58:31.345Z,9.28
2022-10-09T21:00:34.307Z,9.32
2022-10-09T21:02:37.223Z,9.22
2022-10-09T21:04:40.054Z,9.21
2022-10-09T21:06:43.073Z,9.24
2022-10-09T21:08:46.650Z,9.23
2022-10-09T21:10:51.371Z,9.27
2022-10-09T21:12:54.219Z,9.27
2022-10-09T21:14:58.473Z,9.26
2022-10-09T21:17:01.329Z,9.19
2022-10-09T21:19:05.414Z,9.22
2022-10-09T21:21:10.979Z,9.17
2022-10-09T21:23:15.574Z,9.00
2022-10-09T21:25:18.571Z,8.97
2022-10-09T21:27:22.936Z,8.94
2022-10-09T21:29:27.235Z,8.89
2022-10-09T21:31:31.766Z,8.88
2022-10-09T21:33:36.063Z,8.78
2022-10-09T21:35:42.641Z,8.70
2022-10-09T21:37:48.248Z,8.67
2022-10-09T21:39:51.350Z,8.63
2022-10-09T21:41:54.312Z,8.58
2022-10-09T21:43:58.590Z,8.55
2022-10-09T21:46:01.526Z,8.53
2022-10-09T21:48:04.808Z,8.48
2022-10-09T21:50:08.527Z,8.41
2022-10-09T21:52:11.906Z,8.39
2022-10-09T21:54:14.933Z,8.40
2022-10-09T21:56:18.234Z,8.33
2022-10-09T21:58:21.063Z,8.33
2022-10-09T22:00:25.681Z,8.29
2022-10-09T22:02:31.190Z,8.32
2022-10-09T22:04:37.427Z,8.25
2022-10-09T22:06:45.890Z,8.27
2022-10-09T22:08:50.315Z,8.29
2022-10-09T22:10:55.116Z,8.23
2022-10-09T22:12:59.089Z,8.28
2022-10-09T22:15:05.613Z,8.32
2022-10-09T22:17:10.222Z,8.30
2022-10-09T22:19:13.834Z,8.28
2022-10-09T22:21:19.017Z,8.26
2022-10-09T22:23:32.605Z,8.23
2022-10-09T22:25:40.929Z,8.19
2022-10-09T22:27:45.002Z,8.21
2022-10-09T22:29:49.791Z,8.22
2022-10-09T22:31:55.705Z,8.26
2022-10-09T22:34:03.522Z,8.30
2022-10-09T22:36:12.487Z,8.27
2022-10-09T22:38:18.592Z,8.23
2022-10-09T22:40:28.214Z,8.23
2022-10-09T22:42:32.105Z,8.21
2022-10-09T22:44:42.787Z,8.17
2022-10-09T22:46:48.844Z,8.21
2022-10-09T22:48:56.139Z,8.22
2022-10-09T22:51:06.062Z,8.23
2022-10-09T22:53:09.956Z,8.21
2022-10-09T22:55:13.788Z,8.22
2022-10-09T22:57:19.535Z,8.22
2022-10-09T22:59:26.355Z,8.23
2022-10-09T23:01:32.169Z,8.22
2022-10-09T23:03:36.878Z,8.22
2022-10-09T23:05:40.641Z,8.19
2022-10-09T23:07:49.038Z,8.17
2022-10-09T23:09:53.879Z,8.18
2022-10-09T23:11:59.530Z,8.16
2022-10-09T23:14:06.244Z,8.16
2022-10-09T23:16:14.089Z,8.14
2022-10-09T23:18:18.329Z,8.10
2022-10-09T23:20:24.201Z,8.05
2022-10-09T23:22:38.347Z,8.04
2022-10-09T23:24:44.665Z,8.00
2022-10-09T23:26:52.764Z,8.04
2022-10-09T23:29:10.369Z,8.06
2022-10-09T23:31:17.741Z,8.03
2022-10-09T23:33:23.160Z,7.98
2022-10-09T23:35:33.785Z,7.92
2022-10-09T23:37:38.031Z,7.92
2022-10-09T23:39:42.926Z,7.97
2022-10-09T23:41:49.659Z,7.98
2022-10-09T23:43:54.104Z,7.95
2022-10-09T23:46:00.852Z,7.99
2022-10-09T23:48:09.136Z,8.04
2022-10-09T23:50:27.830Z,8.06
2022-10-09T23:52:39.424Z,8.09
2022-10-09T23:54:43.582Z,8.10
2022-10-09T23:56:52.641Z,8.16
2022-10-09T23:58:59.081Z,8.17
